createdAt,value
2023-03-11T00:01:15.912Z,2.70
2023-03-11T00:03:43.285Z,2.87
2023-03-11T00:06:10.695Z,2.90
2023-03-11T00:08:38.116Z,2.70
2023-03-11T00:11:05.577Z,3.33
2023-03-11T00:13:36.385Z,3.33
2023-03-11T00:16:03.908Z,2.97
2023-03-11T00:18:31.416Z,4.07
2023-03-11T00:20:59.935Z,3.07
2023-03-11T00:23:28.036Z,3.30
2023-03-11T00:25:55.751Z,2.70
2023-03-11T00:28:25.839Z,2.97
2023-03-11T00:30:55.110Z,3.07
2023-03-11T00:33:22.631Z,2.90
2023-03-11T00:35:50.933Z,2.70
2023-03-11T00:38:20.405Z,2.77
2023-03-11T00:40:48.697Z,2.80
2023-03-11T00:43:16.410Z,2.90
2023-03-11T00:45:44.067Z,2.33
2023-03-11T00:48:14.341Z,2.70
2023-03-11T00:50:41.983Z,2.67
2023-03-11T00:53:09.383Z,3.73
2023-03-11T00:55:36.799Z,3.63
2023-03-11T00:58:08.242Z,3.13
2023-03-11T01:00:42.150Z,2.70
2023-03-11T01:03:10.043Z,2.90
2023-03-11T01:05:38.937Z,2.83
2023-03-11T01:08:06.474Z,2.97
2023-03-11T01:10:36.839Z,2.90
2023-03-11T01:13:04.506Z,2.70
2023-03-11T01:15:32.962Z,3.43
2023-03-11T01:18:00.431Z,3.17
2023-03-11T01:20:28.468Z,2.83
2023-03-11T01:22:57.350Z,2.97
2023-03-11T01:25:25.338Z,3.10
2023-03-11T01:27:52.749Z,3.00
2023-03-11T01:30:21.071Z,3.50
2023-03-11T01:32:48.535Z,3.30
2023-03-11T01:35:17.265Z,3.50
2023-03-11T01:37:44.817Z,3.13
2023-03-11T01:40:16.476Z,3.80
2023-03-11T01:42:43.935Z,4.10
2023-03-11T01:45:27.273Z,5.70
2023-03-11T01:47:54.939Z,5.77
2023-03-11T01:50:22.816Z,3.60
2023-03-11T01:52:50.232Z,3.10
2023-03-11T01:55:19.639Z,6.60
2023-03-11T01:57:48.131Z,3.53
2023-03-11T02:00:16.879Z,5.53
2023-03-11T02:02:46.591Z,4.10
2023-03-11T02:05:14.753Z,5.03
2023-03-11T02:07:42.205Z,4.20
2023-03-11T02:10:13.469Z,4.10
2023-03-11T02:12:42.582Z,3.53
2023-03-11T02:15:11.166Z,4.83
2023-03-11T02:17:39.855Z,4.10
2023-03-11T02:20:15.550Z,3.63
2023-03-11T02:22:43.759Z,3.67
2023-03-11T02:25:12.804Z,3.73
2023-03-11T02:27:45.052Z,3.60
2023-03-11T02:30:13.932Z,3.80
2023-03-11T02:32:44.255Z,3.57
2023-03-11T02:35:12.031Z,3.37
2023-03-11T02:37:44.490Z,4.03
2023-03-11T02:40:29.814Z,3.17
2023-03-11T02:43:00.696Z,3.63
2023-03-11T02:45:29.878Z,3.60
2023-03-11T02:47:58.171Z,3.37
2023-03-11T02:50:26.828Z,3.20
2023-03-11T02:52:54.241Z,3.63
2023-03-11T02:55:23.502Z,3.77
2023-03-11T02:57:50.939Z,4.63
2023-03-11T03:00:20.704Z,3.67
2023-03-11T03:02:55.140Z,4.00
2023-03-11T03:05:23.350Z,3.43
2023-03-11T03:07:51.749Z,3.73
2023-03-11T03:10:20.427Z,3.90
2023-03-11T03:12:48.142Z,3.80
2023-03-11T03:15:15.986Z,3.90
2023-03-11T03:17:46.185Z,5.03
2023-03-11T03:20:14.447Z,4.60
2023-03-11T03:22:46.674Z,4.10
2023-03-11T03:25:17.243Z,4.00
2023-03-11T03:27:44.689Z,4.37
2023-03-11T03:30:12.781Z,3.67
2023-03-11T03:32:40.957Z,4.33
2023-03-11T03:35:13.728Z,3.33
2023-03-11T03:38:00.861Z,3.63
2023-03-11T03:40:28.318Z,3.80
2023-03-11T03:42:57.957Z,3.40
2023-03-11T03:45:25.624Z,3.70
2023-03-11T03:47:54.091Z,3.90
2023-03-11T03:50:24.802Z,4.03
2023-03-11T03:52:54.336Z,3.80
2023-03-11T03:55:23.259Z,4.37
2023-03-11T03:57:51.422Z,3.63
2023-03-11T04:00:21.100Z,3.83
2023-03-11T04:02:55.012Z,4.00
2023-03-11T04:05:30.760Z,3.97
2023-03-11T04:07:58.183Z,4.30
2023-03-11T04:10:25.608Z,4.03
2023-03-11T04:12:53.238Z,3.63
2023-03-11T04:15:20.846Z,4.27
2023-03-11T04:17:49.226Z,4.30
2023-03-11T04:20:17.043Z,4.50
2023-03-11T04:22:48.568Z,5.07
2023-03-11T04:25:16.178Z,4.30
2023-03-11T04:27:45.899Z,3.97
2023-03-11T04:30:15.414Z,4.20
2023-03-11T04:32:44.790Z,4.43
2023-03-11T04:35:12.353Z,4.87
2023-03-11T04:37:40.224Z,4.60
2023-03-11T04:40:11.101Z,5.03
2023-03-11T04:42:39.040Z,4.80
2023-03-11T04:45:07.618Z,4.20
2023-03-11T04:47:35.128Z,5.03
2023-03-11T04:50:03.905Z,5.30
2023-03-11T04:52:31.401Z,5.37
2023-03-11T04:54:58.874Z,5.20
2023-03-11T04:57:27.963Z,4.87
2023-03-11T04:59:56.535Z,5.20
2023-03-11T05:02:24.001Z,5.00
2023-03-11T05:04:55.682Z,4.57
2023-03-11T05:07:24.201Z,5.03
2023-03-11T05:09:51.888Z,5.43
2023-03-11T05:12:19.471Z,5.57
2023-03-11T05:14:52.159Z,5.40
2023-03-11T05:17:19.630Z,5.60
2023-03-11T05:19:49.599Z,5.07
2023-03-11T05:22:22.775Z,5.03
2023-03-11T05:24:50.448Z,5.20
2023-03-11T05:27:18.536Z,5.07
2023-03-11T05:29:48.847Z,4.93
2023-03-11T05:32:19.154Z,5.13
2023-03-11T05:34:48.639Z,5.10
2023-03-11T05:37:17.283Z,4.83
2023-03-11T05:39:45.859Z,5.10
2023-03-11T05:42:14.593Z,5.10
2023-03-11T05:44:42.461Z,5.10
2023-03-11T05:47:10.148Z,5.27
2023-03-11T05:49:38.943Z,5.40
2023-03-11T05:52:06.698Z,5.43
2023-03-11T05:54:34.666Z,5.07
2023-03-11T05:57:02.240Z,4.80
2023-03-11T05:59:32.403Z,5.17
2023-03-11T06:02:03.310Z,4.80
2023-03-11T06:04:31.710Z,4.77
2023-03-11T06:07:02.919Z,4.20
2023-03-11T06:09:35.764Z,4.20
2023-03-11T06:12:03.616Z,4.17
2023-03-11T06:14:40.782Z,4.00
2023-03-11T06:17:08.370Z,3.97
2023-03-11T06:19:35.954Z,4.10
2023-03-11T06:22:04.807Z,4.53
2023-03-11T06:24:32.236Z,4.10
2023-03-11T06:27:00.045Z,4.57
2023-03-11T06:29:30.255Z,4.70
2023-03-11T06:31:57.708Z,4.93
2023-03-11T06:34:25.152Z,4.90
2023-03-11T06:36:54.675Z,4.67
2023-03-11T06:39:23.736Z,4.60
2023-03-11T06:41:52.668Z,4.53
2023-03-11T06:44:20.347Z,4.20
2023-03-11T06:46:47.777Z,4.70
2023-03-11T06:49:16.853Z,4.10
2023-03-11T06:51:45.002Z,5.03
2023-03-11T06:54:14.514Z,4.87
2023-03-11T06:56:43.355Z,4.30
2023-03-11T06:59:10.732Z,4.20
2023-03-11T07:01:38.100Z,4.63
2023-03-11T07:04:07.525Z,4.27
2023-03-11T07:06:37.182Z,4.70
2023-03-11T07:09:13.207Z,4.00
2023-03-11T07:11:45.040Z,4.30
2023-03-11T07:14:16.759Z,5.80
2023-03-11T07:16:48.248Z,5.10
2023-03-11T07:19:23.608Z,5.07
2023-03-11T07:21:51.097Z,4.97
2023-03-11T07:24:18.559Z,5.50
2023-03-11T07:26:47.299Z,5.20
2023-03-11T07:29:15.149Z,4.67
2023-03-11T07:31:42.776Z,4.73
2023-03-11T07:34:12.781Z,5.00
2023-03-11T07:36:40.487Z,4.60
2023-03-11T07:39:07.944Z,3.93
2023-03-11T07:41:36.404Z,4.43
2023-03-11T07:44:05.692Z,6.17
2023-03-11T07:46:33.652Z,3.97
2023-03-11T07:49:01.746Z,4.40
2023-03-11T07:51:30.780Z,5.20
2023-03-11T07:53:58.782Z,5.43
2023-03-11T07:56:26.768Z,4.47
2023-03-11T07:58:54.302Z,4.57
2023-03-11T08:01:24.701Z,4.97
2023-03-11T08:03:56.619Z,5.10
2023-03-11T08:06:25.129Z,4.83
2023-03-11T08:08:52.693Z,3.93
2023-03-11T08:11:20.646Z,4.13
2023-03-11T08:13:48.342Z,4.10
2023-03-11T08:16:16.422Z,4.00
2023-03-11T08:18:45.541Z,3.50
2023-03-11T08:21:13.654Z,3.70
2023-03-11T08:23:41.254Z,3.83
2023-03-11T08:26:10.290Z,3.60
2023-03-11T08:28:37.873Z,3.40
2023-03-11T08:31:12.335Z,3.13
2023-03-11T08:33:39.776Z,2.97
2023-03-11T08:36:08.977Z,2.80
2023-03-11T08:38:36.634Z,3.03
2023-03-11T08:41:04.128Z,3.30
2023-03-11T08:43:31.534Z,2.43
2023-03-11T08:46:00.960Z,2.73
2023-03-11T08:48:28.847Z,3.07
2023-03-11T08:50:56.742Z,2.73
2023-03-11T08:53:25.965Z,2.50
2023-03-11T08:55:53.736Z,2.60
2023-03-11T08:58:21.352Z,2.77
2023-03-11T09:00:48.783Z,2.80
2023-03-11T09:03:16.198Z,3.10
2023-03-11T09:05:43.674Z,3.03
2023-03-11T09:08:11.125Z,2.50
2023-03-11T09:10:39.901Z,3.13
2023-03-11T09:13:07.648Z,2.70
2023-03-11T09:15:36.353Z,2.90
2023-03-11T09:18:04.070Z,3.10
2023-03-11T09:20:31.508Z,2.47
2023-03-11T09:22:58.957Z,2.50
2023-03-11T09:25:26.377Z,2.37
2023-03-11T09:27:55.150Z,2.57
2023-03-11T09:30:22.586Z,2.90
2023-03-11T09:32:50.048Z,2.63
2023-03-11T09:35:17.586Z,2.77
2023-03-11T09:37:45.080Z,2.70
2023-03-11T09:40:13.769Z,2.63
2023-03-11T09:42:46.289Z,2.80
2023-03-11T09:45:42.627Z,2.90
2023-03-11T09:48:22.430Z,2.97
2023-03-11T09:50:52.829Z,2.83
2023-03-11T09:53:27.589Z,2.67
2023-03-11T09:55:56.067Z,2.57
2023-03-11T09:58:27.146Z,3.27
2023-03-11T10:00:54.575Z,2.80
2023-03-11T10:03:27.345Z,2.90
2023-03-11T10:05:58.048Z,2.60
2023-03-11T10:08:43.006Z,3.30
2023-03-11T10:11:16.413Z,3.37
2023-03-11T10:13:46.505Z,3.77
2023-03-11T10:16:18.618Z,3.37
2023-03-11T10:18:50.803Z,3.40
2023-03-11T10:21:22.075Z,3.27
2023-03-11T10:23:57.721Z,3.50
2023-03-11T10:26:29.692Z,2.67
2023-03-11T10:28:59.344Z,3.40
2023-03-11T10:31:28.402Z,3.60
2023-03-11T10:33:58.431Z,3.17
2023-03-11T10:36:27.242Z,3.20
2023-03-11T10:38:55.971Z,3.57
2023-03-11T10:41:27.268Z,3.40
2023-03-11T10:43:58.084Z,3.60
2023-03-11T10:46:26.372Z,3.47
2023-03-11T10:48:53.943Z,3.97
2023-03-11T10:51:23.565Z,3.33
2023-03-11T10:53:51.706Z,3.23
2023-03-11T10:56:26.593Z,3.60
2023-03-11T10:58:54.779Z,3.40
2023-03-11T11:01:22.669Z,3.07
2023-03-11T11:03:51.104Z,3.67
2023-03-11T11:06:25.187Z,3.17
2023-03-11T11:09:06.315Z,3.27
2023-03-11T11:11:35.171Z,3.67
2023-03-11T11:14:02.573Z,3.43
2023-03-11T11:16:30.159Z,3.80
2023-03-11T11:19:00.918Z,3.70
2023-03-11T11:21:32.175Z,3.10
2023-03-11T11:24:17.552Z,3.63
2023-03-11T11:27:03.696Z,3.50
2023-03-11T11:29:31.221Z,3.40
2023-03-11T11:32:12.204Z,3.67
2023-03-11T11:34:39.865Z,4.00
2023-03-11T11:37:13.469Z,4.10
2023-03-11T11:39:45.268Z,4.43
2023-03-11T11:42:14.698Z,4.80
2023-03-11T11:44:43.749Z,4.00
2023-03-11T11:47:14.284Z,3.93
2023-03-11T11:49:45.346Z,4.50
2023-03-11T11:52:17.108Z,4.57
2023-03-11T11:54:46.579Z,4.00
2023-03-11T11:57:15.202Z,3.67
2023-03-11T11:59:43.239Z,4.00
2023-03-11T12:02:18.160Z,4.30
2023-03-11T12:04:49.029Z,3.73
2023-03-11T12:07:27.023Z,3.30
2023-03-11T12:10:00.801Z,4.10
2023-03-11T12:12:36.894Z,4.20
2023-03-11T12:15:09.368Z,4.60
2023-03-11T12:17:38.854Z,3.50
2023-03-11T12:20:11.175Z,4.70
2023-03-11T12:23:05.710Z,3.87
2023-03-11T12:25:38.022Z,3.90
2023-03-11T12:28:12.648Z,4.40
2023-03-11T12:30:43.868Z,3.70
2023-03-11T12:33:15.348Z,3.10
2023-03-11T12:35:48.576Z,3.43
2023-03-11T12:38:17.698Z,3.80
2023-03-11T12:40:50.730Z,3.50
2023-03-11T12:43:29.967Z,3.57
2023-03-11T12:45:59.282Z,3.47
2023-03-11T12:48:33.477Z,3.40
2023-03-11T12:51:01.741Z,3.50
2023-03-11T12:53:45.835Z,3.73
2023-03-11T12:56:20.915Z,3.40
2023-03-11T12:59:02.269Z,3.90
2023-03-11T13:01:42.522Z,3.60
2023-03-11T13:04:20.730Z,3.63
2023-03-11T13:07:04.229Z,3.53
2023-03-11T13:09:31.926Z,3.63
2023-03-11T13:12:00.741Z,3.90
2023-03-11T13:14:30.192Z,3.70
2023-03-11T13:16:58.329Z,3.30
2023-03-11T13:19:34.494Z,3.70
2023-03-11T13:22:02.701Z,3.80
2023-03-11T13:24:50.032Z,3.97
2023-03-11T13:27:25.128Z,3.63
2023-03-11T13:29:57.151Z,3.47
2023-03-11T13:32:42.526Z,3.33
2023-03-11T13:35:14.282Z,3.63
2023-03-11T13:37:45.456Z,3.63
2023-03-11T13:40:14.879Z,3.53
2023-03-11T13:42:46.242Z,3.10
2023-03-11T13:45:18.377Z,3.00
2023-03-11T13:47:49.440Z,3.47
2023-03-11T13:50:21.699Z,3.70
2023-03-11T13:52:50.119Z,3.70
2023-03-11T13:55:24.541Z,4.03
2023-03-11T13:57:53.880Z,3.70
2023-03-11T14:00:23.999Z,3.77
2023-03-11T14:02:54.117Z,4.13
2023-03-11T14:05:23.643Z,7.87
2023-03-11T14:07:51.205Z,4.40
2023-03-11T14:10:23.409Z,4.37
2023-03-11T14:12:51.002Z,3.43
2023-03-11T14:15:21.726Z,4.03
2023-03-11T14:17:49.185Z,3.97
2023-03-11T14:20:17.823Z,3.77
2023-03-11T14:22:46.020Z,4.90
2023-03-11T14:25:17.645Z,4.37
2023-03-11T14:27:47.765Z,4.30
2023-03-11T14:30:21.019Z,3.90
2023-03-11T14:32:57.698Z,6.45
2023-03-11T14:35:25.299Z,3.90
2023-03-11T14:37:53.581Z,3.43
2023-03-11T14:40:24.147Z,4.53
2023-03-11T14:42:54.028Z,4.40
2023-03-11T14:45:22.703Z,4.90
2023-03-11T14:47:52.707Z,4.20
2023-03-11T14:50:22.403Z,4.43
2023-03-11T14:52:51.713Z,4.20
2023-03-11T14:55:20.945Z,4.20
2023-03-11T14:57:49.475Z,4.40
2023-03-11T15:00:19.667Z,4.00
2023-03-11T15:02:56.599Z,4.90
2023-03-11T15:05:27.802Z,3.90
2023-03-11T15:07:58.740Z,3.63
2023-03-11T15:10:26.231Z,3.67
2023-03-11T15:13:04.641Z,3.60
2023-03-11T15:15:32.040Z,4.00
2023-03-11T15:18:00.308Z,3.27
2023-03-11T15:20:30.957Z,4.00
2023-03-11T15:23:00.848Z,3.63
2023-03-11T15:25:29.531Z,3.50
2023-03-11T15:27:56.966Z,3.70
2023-03-11T15:30:25.338Z,3.60
2023-03-11T15:32:53.224Z,3.60
2023-03-11T15:35:21.696Z,3.97
2023-03-11T15:37:51.447Z,3.90
2023-03-11T15:40:21.066Z,3.70
2023-03-11T15:42:49.055Z,4.03
2023-03-11T15:45:17.779Z,4.00
2023-03-11T15:47:45.677Z,3.73
2023-03-11T15:50:24.422Z,3.80
2023-03-11T15:52:54.704Z,3.70
2023-03-11T15:55:22.203Z,4.00
2023-03-11T15:57:50.093Z,4.27
2023-03-11T16:00:19.360Z,4.13
2023-03-11T16:02:46.745Z,4.20
2023-03-11T16:05:15.306Z,4.23
2023-03-11T16:07:42.708Z,4.30
2023-03-11T16:10:12.170Z,4.03
2023-03-11T16:12:39.685Z,4.13
2023-03-11T16:15:07.808Z,4.60
2023-03-11T16:17:48.983Z,4.70
2023-03-11T16:20:17.162Z,4.40
2023-03-11T16:22:44.595Z,4.57
2023-03-11T16:25:19.223Z,3.97
2023-03-11T16:27:46.617Z,4.37
2023-03-11T16:30:15.955Z,4.23
2023-03-11T16:32:43.758Z,3.77
2023-03-11T16:35:12.724Z,4.40
2023-03-11T16:37:44.829Z,4.10
2023-03-11T16:40:15.220Z,3.60
2023-03-11T16:42:43.528Z,3.80
2023-03-11T16:45:11.359Z,3.63
2023-03-11T16:47:38.773Z,3.80
2023-03-11T16:50:06.849Z,3.80
2023-03-11T16:52:34.453Z,4.10
2023-03-11T16:55:01.947Z,5.80
2023-03-11T16:57:30.681Z,7.97
2023-03-11T16:59:58.164Z,5.33
2023-03-11T17:02:25.568Z,5.53
2023-03-11T17:04:53.043Z,4.90
2023-03-11T17:07:23.980Z,5.73
2023-03-11T17:09:51.459Z,5.97
2023-03-11T17:12:19.154Z,7.07
2023-03-11T17:14:48.024Z,7.37
2023-03-11T17:17:15.401Z,6.07
2023-03-11T17:19:42.819Z,5.63
2023-03-11T17:22:10.226Z,4.97
2023-03-11T17:24:37.783Z,4.57
2023-03-11T17:27:05.404Z,5.10
2023-03-11T17:29:33.661Z,5.40
2023-03-11T17:32:08.406Z,4.70
2023-03-11T17:37:52.104Z,4.70
2023-03-11T17:40:38.937Z,4.57
2023-03-11T17:43:08.577Z,4.70
2023-03-11T17:45:36.023Z,5.13
2023-03-11T17:48:03.454Z,5.17
2023-03-11T17:50:30.912Z,5.43
2023-03-11T17:52:59.622Z,5.23
2023-03-11T17:55:27.237Z,4.80
2023-03-11T17:57:54.616Z,5.80
2023-03-11T18:00:22.592Z,6.00
2023-03-11T18:02:51.186Z,6.40
2023-03-11T18:05:18.879Z,7.07
2023-03-11T18:07:46.335Z,6.80
2023-03-11T18:10:15.488Z,5.47
2023-03-11T18:12:44.225Z,5.37
2023-03-11T18:15:14.636Z,5.87
2023-03-11T18:17:42.034Z,5.60
2023-03-11T18:20:10.101Z,5.67
2023-03-11T18:22:40.146Z,5.97
2023-03-11T18:25:10.340Z,5.80
2023-03-11T18:27:39.168Z,5.63
2023-03-11T18:30:08.071Z,5.97
2023-03-11T18:32:35.505Z,5.53
2023-03-11T18:35:02.905Z,5.57
2023-03-11T18:37:30.306Z,5.50
2023-03-11T18:39:57.699Z,5.70
2023-03-11T18:42:25.083Z,5.90
2023-03-11T18:44:53.899Z,5.53
2023-03-11T18:47:21.335Z,5.90
2023-03-11T18:49:48.748Z,5.40
2023-03-11T18:52:16.113Z,5.67
2023-03-11T18:54:44.363Z,6.03
2023-03-11T18:57:11.742Z,5.90
2023-03-11T18:59:53.458Z,5.53
2023-03-11T19:02:22.280Z,5.83
2023-03-11T19:04:49.705Z,6.10
2023-03-11T19:07:17.479Z,5.87
2023-03-11T19:09:44.907Z,5.77
2023-03-11T19:12:12.547Z,6.43
2023-03-11T19:14:39.975Z,6.07
2023-03-11T19:17:07.418Z,5.60
2023-03-11T19:19:36.159Z,6.00
2023-03-11T19:22:03.569Z,5.73
2023-03-11T19:24:30.982Z,6.10
2023-03-11T19:26:58.364Z,6.77
2023-03-11T19:29:26.739Z,7.57
2023-03-11T19:31:54.184Z,6.13
2023-03-11T19:34:22.291Z,9.87
2023-03-11T19:36:51.066Z,5.90
2023-03-11T19:39:18.731Z,5.47
2023-03-11T19:41:46.114Z,5.13
2023-03-11T19:44:13.599Z,5.40
2023-03-11T19:46:41.021Z,6.00
2023-03-11T19:49:08.521Z,5.63
2023-03-11T19:51:49.117Z,6.70
2023-03-11T19:54:19.284Z,7.20
2023-03-11T19:56:47.874Z,6.20
2023-03-11T19:59:15.367Z,7.00
2023-03-11T20:01:43.078Z,6.57
2023-03-11T20:04:11.038Z,7.33
2023-03-11T20:06:38.640Z,7.57
2023-03-11T20:09:06.967Z,8.60
2023-03-11T20:11:37.718Z,8.63
2023-03-11T20:14:06.240Z,7.63
2023-03-11T20:16:33.645Z,8.17
2023-03-11T20:19:01.686Z,8.20
2023-03-11T20:21:29.177Z,8.90
2023-03-11T20:23:57.111Z,8.37
2023-03-11T20:26:25.093Z,9.33
2023-03-11T20:28:56.863Z,8.60
2023-03-11T20:31:25.709Z,8.70
2023-03-11T20:33:53.921Z,8.50
2023-03-11T20:36:22.554Z,8.37
2023-03-11T20:38:50.444Z,8.37
2023-03-11T20:41:18.002Z,8.00
2023-03-11T20:43:45.580Z,8.37
2023-03-11T20:46:14.508Z,8.40
2023-03-11T20:48:42.022Z,8.40
2023-03-11T20:51:11.331Z,9.17
2023-03-11T20:53:38.991Z,7.60
2023-03-11T20:56:07.626Z,8.30
2023-03-11T20:58:35.065Z,7.90
2023-03-11T21:01:02.690Z,6.77
2023-03-11T21:03:31.578Z,6.03
2023-03-11T21:05:59.039Z,6.10
2023-03-11T21:08:26.483Z,6.57
2023-03-11T21:10:59.281Z,6.30
2023-03-11T21:13:26.863Z,13.10
2023-03-11T21:15:54.987Z,12.13
2023-03-11T21:18:22.549Z,12.07
2023-03-11T21:20:51.329Z,9.07
2023-03-11T21:23:18.815Z,9.37
2023-03-11T21:25:46.251Z,5.37
2023-03-11T21:28:14.059Z,5.27
2023-03-11T21:30:42.327Z,6.53
2023-03-11T21:33:09.781Z,6.10
2023-03-11T21:35:37.542Z,6.23
2023-03-11T21:38:06.537Z,6.20
2023-03-11T21:40:34.053Z,6.67
2023-03-11T21:43:01.844Z,8.73
2023-03-11T21:45:29.372Z,8.00
2023-03-11T21:47:56.935Z,6.70
2023-03-11T21:50:24.484Z,6.73
2023-03-11T21:52:51.944Z,6.47
2023-03-11T21:55:20.792Z,5.63
2023-03-11T21:57:48.230Z,5.53
2023-03-11T22:00:16.061Z,4.75
2023-03-11T22:02:43.491Z,4.17
2023-03-11T22:05:12.017Z,3.93
2023-03-11T22:07:39.740Z,4.40
2023-03-11T22:10:07.914Z,4.20
2023-03-11T22:12:41.483Z,4.13
2023-03-11T22:15:09.457Z,3.97
2023-03-11T22:17:37.134Z,4.30
2023-03-11T22:20:06.573Z,3.93
2023-03-11T22:22:34.580Z,3.97
2023-03-11T22:25:01.995Z,4.80
2023-03-11T22:27:29.360Z,4.43
2023-03-11T22:29:58.092Z,4.20
2023-03-11T22:32:25.541Z,4.30
2023-03-11T22:34:52.950Z,4.20
2023-03-11T22:37:25.029Z,4.10
2023-03-11T22:39:57.120Z,4.10
2023-03-11T22:42:24.589Z,3.90
2023-03-11T22:44:52.078Z,4.13
2023-03-11T22:47:20.914Z,3.60
2023-03-11T22:49:48.599Z,4.00
2023-03-11T22:52:16.904Z,3.80
2023-03-11T22:54:44.460Z,3.40
2023-03-11T22:57:11.908Z,3.90
2023-03-11T22:59:39.313Z,3.80
2023-03-11T23:02:06.657Z,4.40
2023-03-11T23:04:35.422Z,3.90
2023-03-11T23:07:02.883Z,3.70
2023-03-11T23:09:30.458Z,3.47
2023-03-11T23:11:57.872Z,3.50
2023-03-11T23:14:37.689Z,4.40
2023-03-11T23:17:11.446Z,3.67
2023-03-11T23:19:40.264Z,3.53
2023-03-11T23:22:07.652Z,3.47
2023-03-11T23:24:35.024Z,3.37
2023-03-11T23:27:04.650Z,3.40
2023-03-11T23:29:32.175Z,3.30
2023-03-11T23:31:59.756Z,3.87
2023-03-11T23:34:27.149Z,3.70
2023-03-11T23:36:56.137Z,3.87
2023-03-11T23:39:23.544Z,3.20
2023-03-11T23:41:50.932Z,3.60
2023-03-11T23:44:18.319Z,3.40
2023-03-11T23:46:45.754Z,3.30
2023-03-11T23:49:13.155Z,3.60
2023-03-11T23:51:40.585Z,2.90
2023-03-11T23:54:09.312Z,3.43
2023-03-11T23:56:36.740Z,2.87
2023-03-11T23:59:04.239Z,3.40
